createdAt,value
2014-08-11T00:08:51.723Z,24.5
2014-08-11T00:17:52.367Z,24.6
2014-08-11T00:25:52.978Z,24.5
2014-08-11T00:33:53.586Z,24.5
2014-08-11T00:42:54.243Z,24.5
2014-08-11T00:51:54.902Z,24.5
2014-08-11T01:00:55.559Z,24.5
2014-08-11T01:08:56.170Z,24.4
2014-08-11T01:15:56.713Z,24.5
2014-08-11T01:24:57.402Z,24.4
2014-08-11T01:33:58.044Z,24.4
2014-08-11T01:41:58.638Z,24.4
2014-08-11T01:48:59.200Z,24.4
2014-08-11T01:55:59.759Z,24.3
2014-08-11T02:03:00.305Z,24.3
2014-08-11T02:12:00.961Z,24.3
2014-08-11T02:19:01.507Z,24.3
2014-08-11T02:29:02.228Z,24.3
2014-08-11T02:36:02.774Z,24.3
2014-08-11T02:44:03.383Z,24.3
2014-08-11T02:52:03.975Z,24.3
2014-08-11T03:00:04.585Z,24.3
2014-08-11T03:08:05.195Z,24.3
2014-08-11T03:18:05.900Z,24.3
2014-08-11T03:25:06.461Z,24.3
2014-08-11T03:34:07.103Z,24.3
2014-08-11T03:43:07.762Z,24.2
2014-08-11T03:53:08.468Z,24.2
2014-08-11T04:01:09.077Z,24.2
2014-08-11T04:09:09.687Z,24.2
2014-08-11T04:19:10.393Z,24.2
2014-08-11T04:26:10.938Z,24.2
2014-08-11T06:13:32.254Z,23.9
2014-08-11T06:20:32.799Z,23.8
2014-08-11T06:28:33.392Z,23.8
2014-08-11T06:37:34.051Z,23.8
2014-08-11T06:45:34.644Z,23.7
2014-08-11T06:52:35.189Z,23.7
2014-08-11T07:01:35.847Z,23.6
2014-08-11T07:10:36.490Z,23.6
2014-08-11T07:19:37.147Z,23.6
2014-08-11T07:28:37.790Z,23.6
2014-08-11T07:36:38.383Z,23.5
2014-08-11T07:44:38.992Z,23.5
2014-08-11T07:53:39.635Z,23.5
2014-08-11T08:02:40.293Z,23.5
2014-08-11T08:10:40.886Z,23.4
2014-08-11T08:20:41.593Z,23.5
2014-08-11T08:29:42.234Z,23.4
2014-08-11T17:00:21.680Z,23.7
2014-08-11T20:19:40.163Z,23.7
2014-08-11T20:29:40.870Z,23.7
2014-08-11T20:36:41.415Z,23.8
2014-08-11T20:45:42.073Z,23.7
2014-08-11T20:52:42.618Z,23.7
2014-08-11T21:00:43.226Z,23.8
2014-08-11T21:08:43.836Z,23.9
2014-08-11T21:15:44.381Z,23.8
2014-08-11T21:23:44.974Z,23.8
2014-08-11T21:30:45.534Z,23.9
2014-08-11T21:38:46.128Z,23.8
2014-08-11T21:47:46.786Z,23.9
2014-08-11T21:56:47.427Z,23.8
2014-08-11T22:04:48.038Z,23.8
2014-08-11T22:13:48.680Z,23.7
2014-08-11T22:21:49.289Z,23.7
2014-08-11T22:31:49.996Z,23.7
2014-08-11T22:37:50.491Z,23.6
2014-08-11T22:46:51.166Z,23.7
2014-08-11T22:55:51.808Z,23.7
2014-08-11T23:02:52.368Z,23.7
2014-08-11T23:10:52.961Z,23.7
2014-08-11T23:20:53.667Z,23.7
2014-08-11T23:28:54.278Z,23.7
2014-08-11T23:36:54.871Z,23.6
2014-08-11T23:44:55.463Z,23.6
2014-08-11T23:51:56.024Z,23.5
2014-08-11T23:58:56.567Z,23.5
